sensor_id;sensor_type;location;lat;lon;timestamp;P1;durP1;ratioP1;P2;durP2;ratioP2
78614;SDS011;67937;52.488;20.952;2023-02-27T00:00:53;4.90;;;2.50;;
78614;SDS011;67937;52.488;20.952;2023-02-27T00:03:26;24.80;;;8.20;;
78614;SDS011;67937;52.488;20.952;2023-02-27T00:05:54;21.40;;;7.40;;
78614;SDS011;67937;52.488;20.952;2023-02-27T00:08:23;9.70;;;4.30;;
78614;SDS011;67937;52.488;20.952;2023-02-27T00:10:52;9.00;;;4.00;;
78614;SDS011;67937;52.488;20.952;2023-02-27T00:13:20;11.90;;;4.30;;
78614;SDS011;67937;52.488;20.952;2023-02-27T00:15:48;10.10;;;4.10;;
78614;SDS011;67937;52.488;20.952;2023-02-27T00:18:17;11.50;;;5.30;;
78614;SDS011;67937;52.488;20.952;2023-02-27T00:20:45;11.90;;;4.90;;
78614;SDS011;67937;52.488;20.952;2023-02-27T00:23:13;7.10;;;4.20;;
78614;SDS011;67937;52.488;20.952;2023-02-27T00:25:42;8.00;;;3.90;;
78614;SDS011;67937;52.488;20.952;2023-02-27T00:28:10;7.50;;;3.40;;
78614;SDS011;67937;52.488;20.952;2023-02-27T00:30:38;8.50;;;4.90;;
78614;SDS011;67937;52.488;20.952;2023-02-27T00:33:06;6.50;;;3.30;;
78614;SDS011;67937;52.488;20.952;2023-02-27T00:35:35;6.60;;;4.00;;
78614;SDS011;67937;52.488;20.952;2023-02-27T00:38:03;4.90;;;3.30;;
78614;SDS011;67937;52.488;20.952;2023-02-27T00:40:31;9.40;;;4.50;;
78614;SDS011;67937;52.488;20.952;2023-02-27T00:43:01;11.10;;;4.60;;
78614;SDS011;67937;52.488;20.952;2023-02-27T00:45:30;11.50;;;6.30;;
78614;SDS011;67937;52.488;20.952;2023-02-27T00:47:58;4.10;;;2.70;;
78614;SDS011;67937;52.488;20.952;2023-02-27T00:50:26;7.30;;;3.30;;
78614;SDS011;67937;52.488;20.952;2023-02-27T00:52:54;6.70;;;5.30;;
78614;SDS011;67937;52.488;20.952;2023-02-27T00:55:22;4.70;;;2.90;;
78614;SDS011;67937;52.488;20.952;2023-02-27T00:57:51;4.90;;;3.10;;
78614;SDS011;67937;52.488;20.952;2023-02-27T01:00:19;6.00;;;3.60;;
78614;SDS011;67937;52.488;20.952;2023-02-27T01:02:47;4.60;;;2.50;;
78614;SDS011;67937;52.488;20.952;2023-02-27T01:05:15;4.30;;;3.50;;
78614;SDS011;67937;52.488;20.952;2023-02-27T01:07:44;3.80;;;2.40;;
78614;SDS011;67937;52.488;20.952;2023-02-27T01:10:12;6.30;;;3.70;;
78614;SDS011;67937;52.488;20.952;2023-02-27T01:12:40;7.00;;;3.30;;
78614;SDS011;67937;52.488;20.952;2023-02-27T01:15:09;4.50;;;2.50;;
78614;SDS011;67937;52.488;20.952;2023-02-27T01:17:38;7.60;;;3.60;;
78614;SDS011;67937;52.488;20.952;2023-02-27T01:20:07;5.70;;;3.20;;
78614;SDS011;67937;52.488;20.952;2023-02-27T01:22:36;2.30;;;2.10;;
78614;SDS011;67937;52.488;20.952;2023-02-27T01:25:05;6.10;;;3.20;;
78614;SDS011;67937;52.488;20.952;2023-02-27T01:27:34;5.00;;;2.90;;
78614;SDS011;67937;52.488;20.952;2023-02-27T01:30:03;7.20;;;3.90;;
78614;SDS011;67937;52.488;20.952;2023-02-27T01:32:32;8.20;;;4.50;;
78614;SDS011;67937;52.488;20.952;2023-02-27T01:35:00;8.50;;;3.90;;
78614;SDS011;67937;52.488;20.952;2023-02-27T01:37:28;8.50;;;4.30;;
78614;SDS011;67937;52.488;20.952;2023-02-27T01:39:56;6.40;;;4.20;;
78614;SDS011;67937;52.488;20.952;2023-02-27T01:42:26;7.90;;;3.80;;
78614;SDS011;67937;52.488;20.952;2023-02-27T01:47:40;5.20;;;3.30;;
78614;SDS011;67937;52.488;20.952;2023-02-27T01:50:12;6.40;;;3.90;;
78614;SDS011;67937;52.488;20.952;2023-02-27T01:52:42;7.20;;;4.20;;
78614;SDS011;67937;52.488;20.952;2023-02-27T01:55:12;8.20;;;4.60;;
78614;SDS011;67937;52.488;20.952;2023-02-27T01:57:41;10.00;;;5.10;;
78614;SDS011;67937;52.488;20.952;2023-02-27T02:00:12;10.80;;;5.20;;
78614;SDS011;67937;52.488;20.952;2023-02-27T02:02:43;8.90;;;4.40;;
78614;SDS011;67937;52.488;20.952;2023-02-27T02:05:20;12.00;;;5.40;;
78614;SDS011;67937;52.488;20.952;2023-02-27T02:07:49;5.80;;;3.60;;
78614;SDS011;67937;52.488;20.952;2023-02-27T02:10:18;10.30;;;5.30;;
78614;SDS011;67937;52.488;20.952;2023-02-27T02:12:46;6.40;;;4.10;;
78614;SDS011;67937;52.488;20.952;2023-02-27T02:15:16;8.90;;;4.40;;
78614;SDS011;67937;52.488;20.952;2023-02-27T02:17:56;7.00;;;3.60;;
78614;SDS011;67937;52.488;20.952;2023-02-27T02:23:31;7.30;;;4.00;;
78614;SDS011;67937;52.488;20.952;2023-02-27T02:26:30;6.00;;;3.50;;
78614;SDS011;67937;52.488;20.952;2023-02-27T02:35:44;7.80;;;3.90;;
78614;SDS011;67937;52.488;20.952;2023-02-27T02:38:27;5.80;;;4.00;;
78614;SDS011;67937;52.488;20.952;2023-02-27T02:52:28;6.10;;;3.50;;
78614;SDS011;67937;52.488;20.952;2023-02-27T02:55:25;6.30;;;3.40;;
78614;SDS011;67937;52.488;20.952;2023-02-27T02:58:36;6.80;;;3.80;;
78614;SDS011;67937;52.488;20.952;2023-02-27T03:01:11;7.90;;;3.70;;
78614;SDS011;67937;52.488;20.952;2023-02-27T03:03:46;6.40;;;3.40;;
78614;SDS011;67937;52.488;20.952;2023-02-27T03:06:21;5.20;;;3.40;;
78614;SDS011;67937;52.488;20.952;2023-02-27T03:08:57;6.40;;;3.70;;
78614;SDS011;67937;52.488;20.952;2023-02-27T03:11:30;7.20;;;3.40;;
78614;SDS011;67937;52.488;20.952;2023-02-27T03:14:10;6.30;;;4.20;;
78614;SDS011;67937;52.488;20.952;2023-02-27T03:17:04;5.80;;;3.40;;
78614;SDS011;67937;52.488;20.952;2023-02-27T03:22:18;7.70;;;3.30;;
78614;SDS011;67937;52.488;20.952;2023-02-27T03:24:51;4.30;;;3.20;;
78614;SDS011;67937;52.488;20.952;2023-02-27T03:27:22;8.10;;;4.00;;
78614;SDS011;67937;52.488;20.952;2023-02-27T03:30:08;7.50;;;3.80;;
78614;SDS011;67937;52.488;20.952;2023-02-27T03:32:47;6.30;;;3.80;;
78614;SDS011;67937;52.488;20.952;2023-02-27T03:35:26;5.10;;;3.30;;
78614;SDS011;67937;52.488;20.952;2023-02-27T03:40:48;6.30;;;3.30;;
78614;SDS011;67937;52.488;20.952;2023-02-27T03:43:33;4.90;;;3.40;;
78614;SDS011;67937;52.488;20.952;2023-02-27T03:46:23;5.30;;;3.00;;
78614;SDS011;67937;52.488;20.952;2023-02-27T03:48:53;2.70;;;2.40;;
78614;SDS011;67937;52.488;20.952;2023-02-27T03:51:22;5.30;;;2.70;;
78614;SDS011;67937;52.488;20.952;2023-02-27T03:59:40;5.50;;;3.10;;
78614;SDS011;67937;52.488;20.952;2023-02-27T04:02:09;5.10;;;2.60;;
78614;SDS011;67937;52.488;20.952;2023-02-27T04:04:38;4.30;;;2.90;;
78614;SDS011;67937;52.488;20.952;2023-02-27T04:12:53;3.50;;;3.20;;
78614;SDS011;67937;52.488;20.952;2023-02-27T04:27:02;4.10;;;2.80;;
78614;SDS011;67937;52.488;20.952;2023-02-27T04:29:53;5.20;;;2.50;;
78614;SDS011;67937;52.488;20.952;2023-02-27T04:35:07;3.50;;;1.70;;
78614;SDS011;67937;52.488;20.952;2023-02-27T04:37:43;2.40;;;1.70;;
78614;SDS011;67937;52.488;20.952;2023-02-27T04:40:22;3.30;;;1.90;;
78614;SDS011;67937;52.488;20.952;2023-02-27T04:42:54;3.40;;;1.50;;
78614;SDS011;67937;52.488;20.952;2023-02-27T04:45:27;1.20;;;1.20;;
78614;SDS011;67937;52.488;20.952;2023-02-27T04:48:00;0.80;;;0.60;;
78614;SDS011;67937;52.488;20.952;2023-02-27T04:50:40;1.30;;;0.80;;
78614;SDS011;67937;52.488;20.952;2023-02-27T04:53:15;1.60;;;0.60;;
78614;SDS011;67937;52.488;20.952;2023-02-27T04:56:01;1.00;;;0.70;;
78614;SDS011;67937;52.488;20.952;2023-02-27T04:58:40;0.70;;;0.70;;
78614;SDS011;67937;52.488;20.952;2023-02-27T05:01:17;0.70;;;0.40;;
78614;SDS011;67937;52.488;20.952;2023-02-27T05:03:51;0.50;;;0.50;;
78614;SDS011;67937;52.488;20.952;2023-02-27T05:06:22;0.50;;;0.50;;
78614;SDS011;67937;52.488;20.952;2023-02-27T05:08:58;0.50;;;0.40;;
78614;SDS011;67937;52.488;20.952;2023-02-27T05:11:50;0.40;;;0.40;;
78614;SDS011;67937;52.488;20.952;2023-02-27T05:14:32;0.50;;;0.50;;
78614;SDS011;67937;52.488;20.952;2023-02-27T05:17:09;2.20;;;0.80;;
78614;SDS011;67937;52.488;20.952;2023-02-27T05:19:42;0.70;;;0.70;;
78614;SDS011;67937;52.488;20.952;2023-02-27T05:22:15;0.50;;;0.40;;
78614;SDS011;67937;52.488;20.952;2023-02-27T05:27:34;1.20;;;0.60;;
78614;SDS011;67937;52.488;20.952;2023-02-27T05:33:00;0.50;;;0.50;;
78614;SDS011;67937;52.488;20.952;2023-02-27T05:35:46;2.90;;;0.60;;
78614;SDS011;67937;52.488;20.952;2023-02-27T05:38:37;1.30;;;0.60;;
78614;SDS011;67937;52.488;20.952;2023-02-27T05:41:20;0.80;;;0.30;;
78614;SDS011;67937;52.488;20.952;2023-02-27T05:43:58;2.00;;;0.60;;
78614;SDS011;67937;52.488;20.952;2023-02-27T05:46:38;1.80;;;0.40;;
78614;SDS011;67937;52.488;20.952;2023-02-27T05:49:12;2.00;;;0.90;;
78614;SDS011;67937;52.488;20.952;2023-02-27T05:51:50;1.60;;;0.70;;
78614;SDS011;67937;52.488;20.952;2023-02-27T05:54:31;1.40;;;0.70;;
78614;SDS011;67937;52.488;20.952;2023-02-27T05:57:06;1.40;;;0.70;;
78614;SDS011;67937;52.488;20.952;2023-02-27T05:59:45;0.40;;;0.40;;
78614;SDS011;67937;52.488;20.952;2023-02-27T06:02:21;0.60;;;0.50;;
78614;SDS011;67937;52.488;20.952;2023-02-27T06:04:49;1.50;;;0.70;;
78614;SDS011;67937;52.488;20.952;2023-02-27T06:07:17;0.90;;;0.60;;
78614;SDS011;67937;52.488;20.952;2023-02-27T06:09:46;1.30;;;0.80;;
78614;SDS011;67937;52.488;20.952;2023-02-27T06:12:15;1.50;;;0.70;;
78614;SDS011;67937;52.488;20.952;2023-02-27T06:14:43;0.50;;;0.50;;
78614;SDS011;67937;52.488;20.952;2023-02-27T06:17:11;1.10;;;0.60;;
78614;SDS011;67937;52.488;20.952;2023-02-27T06:19:39;1.10;;;0.70;;
78614;SDS011;67937;52.488;20.952;2023-02-27T06:22:08;1.10;;;0.70;;
78614;SDS011;67937;52.488;20.952;2023-02-27T06:24:37;1.00;;;0.90;;
78614;SDS011;67937;52.488;20.952;2023-02-27T06:27:05;2.20;;;1.20;;
78614;SDS011;67937;52.488;20.952;2023-02-27T06:29:34;1.10;;;0.80;;
78614;SDS011;67937;52.488;20.952;2023-02-27T06:32:02;1.60;;;0.90;;
78614;SDS011;67937;52.488;20.952;2023-02-27T06:34:30;1.20;;;1.00;;
78614;SDS011;67937;52.488;20.952;2023-02-27T06:36:58;4.60;;;0.90;;
78614;SDS011;67937;52.488;20.952;2023-02-27T06:39:26;1.30;;;1.00;;
78614;SDS011;67937;52.488;20.952;2023-02-27T06:41:55;1.00;;;0.80;;
78614;SDS011;67937;52.488;20.952;2023-02-27T06:44:23;0.80;;;0.80;;
78614;SDS011;67937;52.488;20.952;2023-02-27T06:46:51;1.10;;;0.80;;
78614;SDS011;67937;52.488;20.952;2023-02-27T06:49:19;0.80;;;0.70;;
78614;SDS011;67937;52.488;20.952;2023-02-27T06:51:48;1.70;;;1.00;;
78614;SDS011;67937;52.488;20.952;2023-02-27T06:54:16;1.40;;;0.90;;
78614;SDS011;67937;52.488;20.952;2023-02-27T06:56:44;1.00;;;0.90;;
78614;SDS011;67937;52.488;20.952;2023-02-27T06:59:13;1.00;;;1.00;;
78614;SDS011;67937;52.488;20.952;2023-02-27T07:01:41;1.20;;;0.80;;
78614;SDS011;67937;52.488;20.952;2023-02-27T07:04:13;0.80;;;0.80;;
78614;SDS011;67937;52.488;20.952;2023-02-27T07:06:42;1.30;;;0.70;;
78614;SDS011;67937;52.488;20.952;2023-02-27T07:09:11;0.90;;;0.80;;
78614;SDS011;67937;52.488;20.952;2023-02-27T07:11:39;0.70;;;0.60;;
78614;SDS011;67937;52.488;20.952;2023-02-27T07:14:07;1.30;;;0.90;;
78614;SDS011;67937;52.488;20.952;2023-02-27T07:16:35;1.50;;;0.80;;
78614;SDS011;67937;52.488;20.952;2023-02-27T07:19:03;0.50;;;0.50;;
78614;SDS011;67937;52.488;20.952;2023-02-27T07:21:31;2.60;;;1.10;;
78614;SDS011;67937;52.488;20.952;2023-02-27T07:24:00;1.40;;;1.10;;
78614;SDS011;67937;52.488;20.952;2023-02-27T07:26:30;3.60;;;0.80;;
78614;SDS011;67937;52.488;20.952;2023-02-27T07:28:58;2.60;;;0.90;;
78614;SDS011;67937;52.488;20.952;2023-02-27T07:31:26;1.90;;;1.10;;
78614;SDS011;67937;52.488;20.952;2023-02-27T07:33:55;1.60;;;1.10;;
78614;SDS011;67937;52.488;20.952;2023-02-27T07:36:23;2.00;;;1.00;;
78614;SDS011;67937;52.488;20.952;2023-02-27T07:38:51;1.00;;;1.00;;
78614;SDS011;67937;52.488;20.952;2023-02-27T07:41:19;1.80;;;1.00;;
78614;SDS011;67937;52.488;20.952;2023-02-27T07:43:48;0.90;;;0.60;;
78614;SDS011;67937;52.488;20.952;2023-02-27T07:46:16;2.50;;;1.00;;
78614;SDS011;67937;52.488;20.952;2023-02-27T07:48:44;1.10;;;0.80;;
78614;SDS011;67937;52.488;20.952;2023-02-27T07:51:12;1.00;;;0.90;;
78614;SDS011;67937;52.488;20.952;2023-02-27T07:53:40;1.30;;;1.00;;
78614;SDS011;67937;52.488;20.952;2023-02-27T07:56:09;4.00;;;1.20;;
78614;SDS011;67937;52.488;20.952;2023-02-27T07:58:37;3.50;;;1.20;;
78614;SDS011;67937;52.488;20.952;2023-02-27T08:01:05;1.30;;;0.90;;
78614;SDS011;67937;52.488;20.952;2023-02-27T08:03:33;1.70;;;0.90;;
78614;SDS011;67937;52.488;20.952;2023-02-27T08:06:01;0.90;;;0.90;;
78614;SDS011;67937;52.488;20.952;2023-02-27T08:08:29;1.20;;;1.10;;
78614;SDS011;67937;52.488;20.952;2023-02-27T08:10:58;1.70;;;1.20;;
78614;SDS011;67937;52.488;20.952;2023-02-27T08:13:26;2.30;;;1.10;;
78614;SDS011;67937;52.488;20.952;2023-02-27T08:15:54;2.60;;;1.30;;
78614;SDS011;67937;52.488;20.952;2023-02-27T08:18:22;1.80;;;0.90;;
78614;SDS011;67937;52.488;20.952;2023-02-27T08:20:50;1.50;;;1.00;;
78614;SDS011;67937;52.488;20.952;2023-02-27T08:23:22;1.10;;;1.00;;
78614;SDS011;67937;52.488;20.952;2023-02-27T08:25:50;2.10;;;1.10;;
78614;SDS011;67937;52.488;20.952;2023-02-27T08:28:19;1.30;;;1.20;;
78614;SDS011;67937;52.488;20.952;2023-02-27T08:30:47;1.30;;;1.00;;
78614;SDS011;67937;52.488;20.952;2023-02-27T08:33:16;2.20;;;1.20;;
78614;SDS011;67937;52.488;20.952;2023-02-27T08:35:44;2.50;;;0.90;;
78614;SDS011;67937;52.488;20.952;2023-02-27T08:38:12;1.50;;;1.30;;
78614;SDS011;67937;52.488;20.952;2023-02-27T08:40:40;1.10;;;1.00;;
78614;SDS011;67937;52.488;20.952;2023-02-27T08:43:08;1.20;;;1.00;;
78614;SDS011;67937;52.488;20.952;2023-02-27T08:45:37;0.80;;;0.80;;
78614;SDS011;67937;52.488;20.952;2023-02-27T08:48:05;1.10;;;0.90;;
78614;SDS011;67937;52.488;20.952;2023-02-27T08:50:33;1.80;;;0.90;;
78614;SDS011;67937;52.488;20.952;2023-02-27T08:53:02;1.10;;;1.00;;
78614;SDS011;67937;52.488;20.952;2023-02-27T08:55:30;1.10;;;1.00;;
78614;SDS011;67937;52.488;20.952;2023-02-27T08:57:58;1.40;;;1.10;;
78614;SDS011;67937;52.488;20.952;2023-02-27T09:00:27;1.20;;;1.10;;
78614;SDS011;67937;52.488;20.952;2023-02-27T09:02:55;1.10;;;0.90;;
78614;SDS011;67937;52.488;20.952;2023-02-27T09:05:23;1.00;;;0.90;;
78614;SDS011;67937;52.488;20.952;2023-02-27T09:07:52;1.00;;;0.80;;
78614;SDS011;67937;52.488;20.952;2023-02-27T09:10:20;1.30;;;1.00;;
78614;SDS011;67937;52.488;20.952;2023-02-27T09:12:48;1.30;;;1.20;;
78614;SDS011;67937;52.488;20.952;2023-02-27T09:15:16;1.50;;;1.10;;
78614;SDS011;67937;52.488;20.952;2023-02-27T09:17:45;0.90;;;0.90;;
78614;SDS011;67937;52.488;20.952;2023-02-27T09:20:13;1.10;;;1.00;;
78614;SDS011;67937;52.488;20.952;2023-02-27T09:22:41;1.60;;;1.20;;
78614;SDS011;67937;52.488;20.952;2023-02-27T09:25:09;1.90;;;0.80;;
78614;SDS011;67937;52.488;20.952;2023-02-27T09:27:38;1.40;;;1.10;;
78614;SDS011;67937;52.488;20.952;2023-02-27T09:30:06;1.00;;;1.00;;
78614;SDS011;67937;52.488;20.952;2023-02-27T09:32:35;0.90;;;0.90;;
78614;SDS011;67937;52.488;20.952;2023-02-27T09:35:04;0.80;;;0.80;;
78614;SDS011;67937;52.488;20.952;2023-02-27T09:37:32;1.30;;;1.20;;
78614;SDS011;67937;52.488;20.952;2023-02-27T09:40:01;0.80;;;0.80;;
78614;SDS011;67937;52.488;20.952;2023-02-27T09:42:36;1.00;;;0.80;;
78614;SDS011;67937;52.488;20.952;2023-02-27T09:45:20;1.80;;;0.80;;
78614;SDS011;67937;52.488;20.952;2023-02-27T09:48:00;1.30;;;1.20;;
78614;SDS011;67937;52.488;20.952;2023-02-27T09:50:42;1.30;;;1.20;;
78614;SDS011;67937;52.488;20.952;2023-02-27T09:53:15;1.20;;;1.00;;
78614;SDS011;67937;52.488;20.952;2023-02-27T09:55:56;0.90;;;0.60;;
78614;SDS011;67937;52.488;20.952;2023-02-27T10:01:33;1.00;;;1.00;;
78614;SDS011;67937;52.488;20.952;2023-02-27T10:10:01;1.80;;;1.30;;
78614;SDS011;67937;52.488;20.952;2023-02-27T10:15:24;1.40;;;0.80;;
78614;SDS011;67937;52.488;20.952;2023-02-27T10:17:59;1.30;;;1.20;;
78614;SDS011;67937;52.488;20.952;2023-02-27T10:20:33;1.20;;;0.70;;
78614;SDS011;67937;52.488;20.952;2023-02-27T10:23:10;1.60;;;1.10;;
78614;SDS011;67937;52.488;20.952;2023-02-27T10:25:47;1.10;;;1.00;;
78614;SDS011;67937;52.488;20.952;2023-02-27T10:28:18;1.10;;;0.80;;
78614;SDS011;67937;52.488;20.952;2023-02-27T10:30:50;1.40;;;0.90;;
78614;SDS011;67937;52.488;20.952;2023-02-27T10:33:31;0.90;;;0.70;;
78614;SDS011;67937;52.488;20.952;2023-02-27T10:36:03;1.20;;;0.80;;
78614;SDS011;67937;52.488;20.952;2023-02-27T10:38:40;2.10;;;1.20;;
78614;SDS011;67937;52.488;20.952;2023-02-27T10:41:12;2.40;;;0.80;;
78614;SDS011;67937;52.488;20.952;2023-02-27T10:43:42;0.70;;;0.70;;
78614;SDS011;67937;52.488;20.952;2023-02-27T10:46:18;1.40;;;0.80;;
78614;SDS011;67937;52.488;20.952;2023-02-27T10:48:53;1.70;;;0.70;;
78614;SDS011;67937;52.488;20.952;2023-02-27T10:51:26;1.30;;;1.00;;
78614;SDS011;67937;52.488;20.952;2023-02-27T10:56:41;1.30;;;1.10;;
78614;SDS011;67937;52.488;20.952;2023-02-27T10:59:26;1.90;;;1.20;;
78614;SDS011;67937;52.488;20.952;2023-02-27T11:01:59;1.20;;;1.10;;
78614;SDS011;67937;52.488;20.952;2023-02-27T11:07:04;1.30;;;0.90;;
78614;SDS011;67937;52.488;20.952;2023-02-27T11:09:35;1.60;;;1.50;;
78614;SDS011;67937;52.488;20.952;2023-02-27T11:12:10;3.10;;;1.50;;
78614;SDS011;67937;52.488;20.952;2023-02-27T11:17:43;1.80;;;0.90;;
78614;SDS011;67937;52.488;20.952;2023-02-27T11:20:32;1.20;;;1.10;;
78614;SDS011;67937;52.488;20.952;2023-02-27T11:23:20;2.00;;;1.20;;
78614;SDS011;67937;52.488;20.952;2023-02-27T11:26:07;0.90;;;0.90;;
78614;SDS011;67937;52.488;20.952;2023-02-27T11:28:37;1.00;;;0.90;;
78614;SDS011;67937;52.488;20.952;2023-02-27T11:31:12;1.10;;;1.00;;
78614;SDS011;67937;52.488;20.952;2023-02-27T11:33:48;2.30;;;1.00;;
78614;SDS011;67937;52.488;20.952;2023-02-27T11:36:20;1.30;;;0.80;;
78614;SDS011;67937;52.488;20.952;2023-02-27T11:38:50;0.80;;;0.80;;
78614;SDS011;67937;52.488;20.952;2023-02-27T11:41:28;1.50;;;0.90;;
78614;SDS011;67937;52.488;20.952;2023-02-27T11:44:00;2.40;;;1.00;;
78614;SDS011;67937;52.488;20.952;2023-02-27T11:46:30;1.30;;;1.20;;
78614;SDS011;67937;52.488;20.952;2023-02-27T11:49:06;1.20;;;1.10;;
78614;SDS011;67937;52.488;20.952;2023-02-27T11:57:20;1.10;;;0.70;;
78614;SDS011;67937;52.488;20.952;2023-02-27T12:02:48;3.80;;;1.20;;
78614;SDS011;67937;52.488;20.952;2023-02-27T12:05:27;1.00;;;0.80;;
78614;SDS011;67937;52.488;20.952;2023-02-27T12:08:03;1.50;;;1.20;;
78614;SDS011;67937;52.488;20.952;2023-02-27T12:10:43;1.00;;;0.90;;
78614;SDS011;67937;52.488;20.952;2023-02-27T12:13:18;1.50;;;1.40;;
78614;SDS011;67937;52.488;20.952;2023-02-27T12:15:55;1.30;;;1.20;;
78614;SDS011;67937;52.488;20.952;2023-02-27T12:21:14;1.30;;;1.10;;
78614;SDS011;67937;52.488;20.952;2023-02-27T12:26:23;1.90;;;1.20;;
78614;SDS011;67937;52.488;20.952;2023-02-27T12:28:58;1.10;;;1.00;;
78614;SDS011;67937;52.488;20.952;2023-02-27T12:34:26;1.50;;;1.20;;
78614;SDS011;67937;52.488;20.952;2023-02-27T12:37:09;2.90;;;2.00;;
78614;SDS011;67937;52.488;20.952;2023-02-27T12:39:41;1.40;;;1.30;;
78614;SDS011;67937;52.488;20.952;2023-02-27T12:48:03;3.00;;;0.80;;
78614;SDS011;67937;52.488;20.952;2023-02-27T12:53:51;2.00;;;1.30;;
78614;SDS011;67937;52.488;20.952;2023-02-27T12:56:41;1.40;;;0.90;;
78614;SDS011;67937;52.488;20.952;2023-02-27T13:02:15;1.90;;;1.60;;
78614;SDS011;67937;52.488;20.952;2023-02-27T13:13:58;2.20;;;1.00;;
78614;SDS011;67937;52.488;20.952;2023-02-27T13:19:13;1.80;;;1.30;;
78614;SDS011;67937;52.488;20.952;2023-02-27T13:24:25;1.40;;;1.30;;
78614;SDS011;67937;52.488;20.952;2023-02-27T13:29:35;3.50;;;1.40;;
78614;SDS011;67937;52.488;20.952;2023-02-27T13:37:50;2.00;;;1.20;;
78614;SDS011;67937;52.488;20.952;2023-02-27T13:42:56;1.90;;;1.30;;
78614;SDS011;67937;52.488;20.952;2023-02-27T13:45:47;1.50;;;1.10;;
78614;SDS011;67937;52.488;20.952;2023-02-27T13:51:09;1.50;;;1.40;;
78614;SDS011;67937;52.488;20.952;2023-02-27T13:57:05;2.60;;;1.10;;
78614;SDS011;67937;52.488;20.952;2023-02-27T13:59:47;1.50;;;1.10;;
78614;SDS011;67937;52.488;20.952;2023-02-27T14:02:33;2.60;;;1.10;;
78614;SDS011;67937;52.488;20.952;2023-02-27T14:05:03;2.60;;;1.40;;
78614;SDS011;67937;52.488;20.952;2023-02-27T14:10:26;1.60;;;1.30;;
78614;SDS011;67937;52.488;20.952;2023-02-27T14:12:57;1.30;;;1.00;;
78614;SDS011;67937;52.488;20.952;2023-02-27T14:18:02;4.10;;;1.30;;
78614;SDS011;67937;52.488;20.952;2023-02-27T14:26:15;2.50;;;1.20;;
78614;SDS011;67937;52.488;20.952;2023-02-27T14:28:48;2.40;;;1.40;;
78614;SDS011;67937;52.488;20.952;2023-02-27T14:31:22;4.70;;;1.50;;
78614;SDS011;67937;52.488;20.952;2023-02-27T14:33:51;1.20;;;1.10;;
78614;SDS011;67937;52.488;20.952;2023-02-27T14:36:23;1.00;;;0.90;;
78614;SDS011;67937;52.488;20.952;2023-02-27T14:38:55;1.40;;;1.20;;
78614;SDS011;67937;52.488;20.952;2023-02-27T14:43:59;7.70;;;3.10;;
78614;SDS011;67937;52.488;20.952;2023-02-27T14:46:29;1.10;;;1.00;;
78614;SDS011;67937;52.488;20.952;2023-02-27T14:49:16;1.80;;;1.50;;
78614;SDS011;67937;52.488;20.952;2023-02-27T14:51:47;1.90;;;1.40;;
78614;SDS011;67937;52.488;20.952;2023-02-27T14:54:26;1.60;;;1.20;;
78614;SDS011;67937;52.488;20.952;2023-02-27T14:57:01;2.10;;;1.00;;
78614;SDS011;67937;52.488;20.952;2023-02-27T14:59:32;2.20;;;1.30;;
78614;SDS011;67937;52.488;20.952;2023-02-27T15:02:15;1.70;;;1.40;;
78614;SDS011;67937;52.488;20.952;2023-02-27T15:04:53;1.90;;;1.20;;
78614;SDS011;67937;52.488;20.952;2023-02-27T15:07:43;2.30;;;1.20;;
78614;SDS011;67937;52.488;20.952;2023-02-27T15:10:16;1.40;;;1.20;;
78614;SDS011;67937;52.488;20.952;2023-02-27T15:12:50;1.20;;;1.10;;
78614;SDS011;67937;52.488;20.952;2023-02-27T15:15:20;1.80;;;1.20;;
78614;SDS011;67937;52.488;20.952;2023-02-27T15:17:50;1.50;;;1.40;;
78614;SDS011;67937;52.488;20.952;2023-02-27T15:20:32;1.20;;;1.10;;
78614;SDS011;67937;52.488;20.952;2023-02-27T15:23:19;2.30;;;1.60;;
78614;SDS011;67937;52.488;20.952;2023-02-27T15:25:52;2.00;;;1.10;;
78614;SDS011;67937;52.488;20.952;2023-02-27T15:28:24;2.40;;;1.40;;
78614;SDS011;67937;52.488;20.952;2023-02-27T15:30:56;1.10;;;1.00;;
78614;SDS011;67937;52.488;20.952;2023-02-27T15:33:28;2.60;;;1.50;;
78614;SDS011;67937;52.488;20.952;2023-02-27T15:35:58;3.30;;;1.80;;
78614;SDS011;67937;52.488;20.952;2023-02-27T15:38:32;2.20;;;1.30;;
78614;SDS011;67937;52.488;20.952;2023-02-27T15:41:03;2.60;;;1.60;;
78614;SDS011;67937;52.488;20.952;2023-02-27T15:43:32;2.30;;;1.20;;
78614;SDS011;67937;52.488;20.952;2023-02-27T15:46:00;3.40;;;1.70;;
78614;SDS011;67937;52.488;20.952;2023-02-27T15:48:29;3.80;;;1.80;;
78614;SDS011;67937;52.488;20.952;2023-02-27T15:50:58;2.90;;;1.50;;
78614;SDS011;67937;52.488;20.952;2023-02-27T15:53:29;1.90;;;1.50;;
78614;SDS011;67937;52.488;20.952;2023-02-27T15:56:03;2.00;;;1.60;;
78614;SDS011;67937;52.488;20.952;2023-02-27T15:58:36;1.50;;;1.20;;
78614;SDS011;67937;52.488;20.952;2023-02-27T16:01:16;3.90;;;1.30;;
78614;SDS011;67937;52.488;20.952;2023-02-27T16:03:47;1.50;;;0.90;;
78614;SDS011;67937;52.488;20.952;2023-02-27T16:06:19;1.70;;;1.10;;
78614;SDS011;67937;52.488;20.952;2023-02-27T16:08:52;1.90;;;1.50;;
78614;SDS011;67937;52.488;20.952;2023-02-27T16:11:27;2.80;;;1.10;;
78614;SDS011;67937;52.488;20.952;2023-02-27T16:13:59;2.00;;;1.10;;
78614;SDS011;67937;52.488;20.952;2023-02-27T16:19:21;1.40;;;1.30;;
78614;SDS011;67937;52.488;20.952;2023-02-27T16:22:03;1.20;;;1.10;;
78614;SDS011;67937;52.488;20.952;2023-02-27T16:24:33;2.00;;;1.40;;
78614;SDS011;67937;52.488;20.952;2023-02-27T16:27:01;2.70;;;1.60;;
78614;SDS011;67937;52.488;20.952;2023-02-27T16:29:33;1.50;;;1.40;;
78614;SDS011;67937;52.488;20.952;2023-02-27T16:32:13;3.00;;;2.20;;
78614;SDS011;67937;52.488;20.952;2023-02-27T16:34:50;5.00;;;2.90;;
78614;SDS011;67937;52.488;20.952;2023-02-27T16:37:31;5.50;;;2.60;;
78614;SDS011;67937;52.488;20.952;2023-02-27T16:40:13;4.80;;;2.50;;
78614;SDS011;67937;52.488;20.952;2023-02-27T16:42:44;3.90;;;2.40;;
78614;SDS011;67937;52.488;20.952;2023-02-27T16:45:24;4.40;;;2.90;;
78614;SDS011;67937;52.488;20.952;2023-02-27T16:47:54;13.30;;;4.00;;
78614;SDS011;67937;52.488;20.952;2023-02-27T16:50:34;7.80;;;4.10;;
78614;SDS011;67937;52.488;20.952;2023-02-27T16:53:08;10.10;;;5.00;;
78614;SDS011;67937;52.488;20.952;2023-02-27T16:55:39;11.40;;;5.70;;
78614;SDS011;67937;52.488;20.952;2023-02-27T16:58:11;12.50;;;6.10;;
78614;SDS011;67937;52.488;20.952;2023-02-27T17:00:42;13.60;;;8.30;;
78614;SDS011;67937;52.488;20.952;2023-02-27T17:03:10;13.30;;;5.80;;
78614;SDS011;67937;52.488;20.952;2023-02-27T17:05:39;14.90;;;6.90;;
78614;SDS011;67937;52.488;20.952;2023-02-27T17:08:08;9.00;;;5.30;;
78614;SDS011;67937;52.488;20.952;2023-02-27T17:10:38;13.00;;;5.80;;
78614;SDS011;67937;52.488;20.952;2023-02-27T17:13:06;12.50;;;6.70;;
78614;SDS011;67937;52.488;20.952;2023-02-27T17:15:34;12.70;;;6.60;;
78614;SDS011;67937;52.488;20.952;2023-02-27T17:18:02;11.40;;;6.30;;
78614;SDS011;67937;52.488;20.952;2023-02-27T17:20:30;10.90;;;6.70;;
78614;SDS011;67937;52.488;20.952;2023-02-27T17:22:59;14.30;;;6.40;;
78614;SDS011;67937;52.488;20.952;2023-02-27T17:25:27;9.50;;;4.50;;
78614;SDS011;67937;52.488;20.952;2023-02-27T17:27:56;9.00;;;4.70;;
78614;SDS011;67937;52.488;20.952;2023-02-27T17:30:24;8.40;;;4.10;;
78614;SDS011;67937;52.488;20.952;2023-02-27T17:32:52;13.30;;;6.10;;
78614;SDS011;67937;52.488;20.952;2023-02-27T17:35:20;15.50;;;6.00;;
78614;SDS011;67937;52.488;20.952;2023-02-27T17:37:50;14.50;;;6.30;;
78614;SDS011;67937;52.488;20.952;2023-02-27T17:40:19;12.50;;;5.00;;
78614;SDS011;67937;52.488;20.952;2023-02-27T17:42:47;14.60;;;6.90;;